Time;durP1;ratioP1;P1;durP2;ratioP2;P2;SDS_P1;SDS_P2;PMS_P1;PMS_P2;Temp;Humidity;BMP_temperature;BMP_pressure;BME280_temperature;BME280_humidity;BME280_pressure;Samples;Min_cycle;Max_cycle;Signal;HPM_P1;HPM_P2
2021/06/17 00:02:11;;;;;;;8.60;5.50;;;24.90;52.30;;;;;;5053851;28;20177;-73
2021/06/17 00:04:36;;;;;;;6.93;6.00;;;24.90;52.40;;;;;;5052881;28;20207;-74
2021/06/17 00:07:02;;;;;;;7.63;6.90;;;24.90;52.50;;;;;;5053532;28;20505;-74
2021/06/17 00:09:28;;;;;;;8.40;6.67;;;24.80;53.10;;;;;;5053885;28;20170;-73
2021/06/17 00:12:00;;;;;;;8.53;5.90;;;24.80;52.60;;;;;;5052549;28;20202;-74
2021/06/17 00:14:28;;;;;;;6.67;6.03;;;24.80;52.60;;;;;;5053800;28;20431;-74
2021/06/17 00:16:55;;;;;;;6.57;5.90;;;24.70;52.60;;;;;;5051954;28;20459;-73
2021/06/17 00:19:21;;;;;;;5.77;5.30;;;24.70;52.70;;;;;;5053596;28;20867;-74
2021/06/17 00:21:46;;;;;;;7.30;5.50;;;24.60;52.70;;;;;;5053961;28;20408;-74
2021/06/17 00:24:12;;;;;;;7.07;6.37;;;24.60;52.90;;;;;;5053626;28;20182;-74
2021/06/17 00:26:37;;;;;;;6.57;5.90;;;24.60;53.00;;;;;;5053201;28;20178;-74
2021/06/17 00:29:03;;;;;;;7.03;5.47;;;24.60;53.10;;;;;;5053448;28;20662;-73
2021/06/17 00:31:29;;;;;;;6.07;5.47;;;24.50;53.10;;;;;;5053537;28;20169;-76
2021/06/17 00:33:55;;;;;;;6.10;5.50;;;24.40;53.20;;;;;;5053606;28;20547;-74
2021/06/17 00:36:20;;;;;;;6.77;6.07;;;24.40;53.30;;;;;;5053183;28;20201;-75
2021/06/17 00:38:46;;;;;;;6.53;5.90;;;24.40;53.50;;;;;;5053200;28;20242;-73
2021/06/17 00:41:12;;;;;;;7.63;6.10;;;24.40;53.60;;;;;;5052085;28;20169;-75
2021/06/17 00:43:38;;;;;;;7.90;5.70;;;24.30;53.60;;;;;;5053452;28;20193;-75
2021/06/17 00:46:03;;;;;;;5.97;5.30;;;24.30;53.60;;;;;;5053007;28;20189;-75
2021/06/17 00:48:29;;;;;;;10.43;5.93;;;24.30;53.80;;;;;;5051754;28;21110;-74
2021/06/17 00:50:58;;;;;;;7.67;5.57;;;24.30;53.80;;;;;;5053402;28;20270;-72
2021/06/17 00:53:31;;;;;;;6.60;5.30;;;24.20;53.90;;;;;;5053090;28;20170;-74
2021/06/17 00:55:58;;;;;;;11.20;6.87;;;24.20;54.10;;;;;;5051529;28;20532;-74
2021/06/17 00:58:25;;;;;;;8.60;5.73;;;24.10;54.30;;;;;;5051848;28;20513;-75
2021/06/17 01:00:51;;;;;;;6.63;5.70;;;24.00;54.30;;;;;;5051745;28;20500;-75
2021/06/17 01:03:17;;;;;;;9.77;6.30;;;24.00;54.40;;;;;;5051357;28;20416;-74
2021/06/17 01:05:43;;;;;;;7.07;6.37;;;24.00;54.50;;;;;;5052848;28;20785;-75
2021/06/17 01:08:18;;;;;;;6.80;6.10;;;23.90;54.60;;;;;;5051800;28;20424;-74
2021/06/17 01:11:02;;;;;;;9.30;6.23;;;23.90;54.80;;;;;;5052566;28;20420;-74
2021/06/17 01:13:45;;;;;;;6.33;5.73;;;23.80;54.90;;;;;;5053370;28;20448;-74
2021/06/17 01:16:28;;;;;;;7.97;6.23;;;23.70;55.00;;;;;;5052420;28;20454;-74
2021/06/17 01:18:59;;;;;;;8.50;6.63;;;23.70;55.20;;;;;;5052712;28;20448;-74
2021/06/17 01:21:32;;;;;;;11.80;5.70;;;23.70;55.40;;;;;;5051948;28;20400;-74
2021/06/17 01:24:12;;;;;;;8.43;6.37;;;23.60;55.40;;;;;;5053871;28;20444;-75
2021/06/17 01:27:09;;;;;;;7.83;7.03;;;23.60;55.50;;;;;;5051638;28;20965;-75
2021/06/17 01:29:39;;;;;;;8.00;6.50;;;23.50;55.60;;;;;;5052089;28;20948;-74
2021/06/17 01:32:07;;;;;;;6.07;5.47;;;23.50;55.80;;;;;;5053119;28;20491;-75
2021/06/17 01:34:34;;;;;;;6.67;6.07;;;23.50;55.80;;;;;;5052206;28;20487;-75
2021/06/17 01:37:07;;;;;;;5.40;5.00;;;23.50;55.90;;;;;;5052752;28;20463;-75
2021/06/17 01:39:36;;;;;;;6.13;5.00;;;23.40;55.80;;;;;;5052810;28;20420;-74
2021/06/17 01:42:05;;;;;;;6.40;5.80;;;23.40;55.80;;;;;;5050579;28;20408;-72
2021/06/17 01:44:32;;;;;;;5.90;5.37;;;23.40;55.90;;;;;;5052396;28;20400;-74
2021/06/17 01:46:58;;;;;;;7.77;5.87;;;23.40;55.90;;;;;;5052146;28;20421;-73
2021/06/17 01:49:24;;;;;;;12.37;5.77;;;23.40;56.00;;;;;;5050767;28;20408;-74
2021/06/17 01:51:52;;;;;;;7.80;5.70;;;23.30;55.90;;;;;;5052241;28;20259;-74
2021/06/17 01:54:24;;;;;;;8.00;6.20;;;23.30;56.00;;;;;;5052421;28;20409;-74
2021/06/17 01:56:52;;;;;;;6.40;5.80;;;23.30;56.10;;;;;;5051836;28;20412;-74
2021/06/17 01:59:19;;;;;;;8.97;5.83;;;23.30;56.30;;;;;;5051783;28;20459;-72
2021/06/17 02:01:46;;;;;;;6.53;5.93;;;23.20;56.20;;;;;;5052162;28;20491;-75
2021/06/17 02:04:13;;;;;;;7.17;6.17;;;23.20;56.20;;;;;;5050811;28;20957;-73
2021/06/17 02:06:42;;;;;;;9.40;5.63;;;23.20;56.30;;;;;;5051809;28;20428;-74
2021/06/17 02:09:08;;;;;;;6.30;5.23;;;23.20;56.40;;;;;;5052030;28;20409;-74
2021/06/17 02:11:36;;;;;;;6.37;5.70;;;23.20;56.40;;;;;;5052369;28;20495;-73
2021/06/17 02:14:03;;;;;;;6.20;5.30;;;23.20;56.40;;;;;;5051979;28;20408;-72
2021/06/17 02:16:32;;;;;;;6.13;5.50;;;23.20;56.40;;;;;;5068874;28;20444;-72
2021/06/17 02:18:59;;;;;;;6.80;6.10;;;23.10;56.50;;;;;;5051154;28;20901;-74
2021/06/17 02:21:28;;;;;;;7.47;6.53;;;23.10;57.20;;;;;;5051568;28;20399;-74
2021/06/17 02:23:58;;;;;;;6.67;6.07;;;23.10;56.70;;;;;;5051153;28;20975;-74
2021/06/17 02:26:25;;;;;;;12.47;5.70;;;23.10;56.70;;;;;;5051548;28;20460;-73
2021/06/17 02:28:53;;;;;;;7.50;5.23;;;23.10;56.80;;;;;;5051998;28;20408;-73
2021/06/17 02:31:28;;;;;;;7.67;5.53;;;23.00;56.70;;;;;;5050372;28;20408;-73
2021/06/17 02:33:54;;;;;;;7.10;5.10;;;23.00;56.80;;;;;;5051899;28;20758;-74
2021/06/17 02:36:25;;;;;;;7.00;6.33;;;23.00;57.00;;;;;;5051288;28;20473;-75
2021/06/17 02:38:55;;;;;;;6.07;5.47;;;23.00;57.10;;;;;;5050563;28;20690;-73
2021/06/17 02:41:22;;;;;;;7.93;5.60;;;22.90;57.00;;;;;;5051632;28;20400;-73
2021/06/17 02:43:53;;;;;;;6.70;5.90;;;22.90;57.10;;;;;;5051317;28;20408;-74
2021/06/17 02:46:21;;;;;;;6.13;5.53;;;22.90;57.20;;;;;;5048256;28;20429;-73
2021/06/17 02:48:47;;;;;;;7.43;5.57;;;22.90;57.30;;;;;;5051208;28;20899;-74
2021/06/17 02:51:13;;;;;;;8.90;6.93;;;22.90;57.30;;;;;;5051757;28;20550;-74
2021/06/17 02:53:38;;;;;;;6.20;4.80;;;22.90;57.30;;;;;;5050557;28;20408;-74
2021/06/17 02:56:11;;;;;;;5.60;5.10;;;22.80;57.30;;;;;;5051627;28;20196;-74
2021/06/17 02:59:08;;;;;;;8.60;5.00;;;22.80;57.30;;;;;;5051977;28;20194;-74
2021/06/17 03:01:47;;;;;;;7.97;5.90;;;22.80;57.40;;;;;;5052694;28;20420;-74
2021/06/17 03:04:20;;;;;;;5.50;4.80;;;22.80;57.40;;;;;;5054446;28;20439;-74
2021/06/17 03:06:52;;;;;;;5.90;5.30;;;22.80;57.30;;;;;;5054198;28;20434;-74
2021/06/17 03:09:44;;;;;;;7.60;5.50;;;22.80;57.30;;;;;;5050799;28;20453;-74
2021/06/17 03:12:16;;;;;;;12.90;5.70;;;22.80;57.40;;;;;;5043106;28;20426;-74
2021/06/17 03:14:45;;;;;;;6.40;5.63;;;22.80;57.40;;;;;;5049730;28;20507;-74
2021/06/17 03:17:13;;;;;;;6.00;5.10;;;22.80;57.40;;;;;;5050042;28;20494;-74
2021/06/17 03:19:41;;;;;;;6.87;5.80;;;22.80;57.40;;;;;;5049205;28;20416;-74
2021/06/17 03:22:10;;;;;;;5.83;5.33;;;22.80;57.40;;;;;;5048830;28;20458;-73
2021/06/17 03:24:39;;;;;;;6.90;5.73;;;22.70;57.40;;;;;;5049395;28;20423;-74
2021/06/17 03:27:07;;;;;;;4.93;4.43;;;22.70;57.50;;;;;;5050176;28;20436;-75
2021/06/17 03:29:46;;;;;;;6.93;6.27;;;22.70;57.60;;;;;;5052997;28;20419;-75
2021/06/17 03:32:13;;;;;;;7.30;6.60;;;22.70;57.60;;;;;;5053289;28;20420;-74
2021/06/17 03:34:42;;;;;;;10.50;6.93;;;22.70;57.60;;;;;;5054987;28;20458;-75
2021/06/17 03:37:11;;;;;;;9.53;5.57;;;22.70;57.70;;;;;;5055047;28;20452;-76
2021/06/17 03:39:38;;;;;;;12.10;6.30;;;22.70;57.80;;;;;;5054248;28;20434;-74
2021/06/17 03:42:06;;;;;;;6.10;5.40;;;22.70;57.80;;;;;;5064522;22;20508;-78
2021/06/17 03:44:33;;;;;;;7.90;6.33;;;22.70;57.80;;;;;;5058640;28;20431;-78
2021/06/17 03:47:01;;;;;;;8.27;5.93;;;22.70;57.80;;;;;;5055547;28;20439;-79
2021/06/17 03:49:28;;;;;;;5.27;4.60;;;22.70;57.70;;;;;;5056056;28;20428;-80
2021/06/17 03:51:56;;;;;;;6.77;5.60;;;22.70;57.70;;;;;;5064143;28;20411;-76
2021/06/17 03:54:24;;;;;;;6.40;5.60;;;22.70;57.70;;;;;;5060943;28;20408;-77
2021/06/17 03:57:01;;;;;;;7.13;5.90;;;22.70;57.60;;;;;;5082939;22;20509;-79
2021/06/17 03:59:30;;;;;;;9.77;5.43;;;22.70;57.60;;;;;;5044909;28;20455;-79
2021/06/17 04:01:56;;;;;;;6.80;6.00;;;22.80;57.50;;;;;;5046087;28;20870;-80
2021/06/17 04:04:23;;;;;;;6.00;5.00;;;22.80;57.30;;;;;;5063741;28;20419;-80
2021/06/17 04:06:58;;;;;;;12.57;9.20;;;22.80;57.20;;;;;;5045903;28;20431;-80
2021/06/17 04:09:28;;;;;;;5.93;5.17;;;22.90;57.20;;;;;;5046132;28;20447;-80
2021/06/17 04:11:57;;;;;;;5.97;5.23;;;22.90;57.00;;;;;;5063930;28;20416;-79
2021/06/17 04:14:25;;;;;;;9.37;5.40;;;22.90;56.90;;;;;;5063952;28;20415;-79
2021/06/17 04:16:52;;;;;;;6.00;5.50;;;22.90;56.80;;;;;;5039117;28;20454;-79
2021/06/17 04:19:28;;;;;;;6.93;5.20;;;23.00;56.70;;;;;;5062084;28;20463;-80
2021/06/17 04:22:01;;;;;;;20.23;7.23;;;23.00;56.70;;;;;;5047523;28;20478;-79
2021/06/17 04:24:32;;;;;;;5.20;4.47;;;23.00;56.60;;;;;;5063725;28;20406;-79
2021/06/17 04:26:59;;;;;;;6.30;5.67;;;23.00;56.60;;;;;;5064065;28;20432;-79
2021/06/17 04:29:26;;;;;;;7.10;5.10;;;23.10;56.70;;;;;;5044608;28;20422;-79
2021/06/17 04:31:54;;;;;;;10.73;6.43;;;23.10;56.60;;;;;;5043249;28;20430;-79
2021/06/17 04:34:22;;;;;;;7.00;4.87;;;23.10;56.60;;;;;;5045331;28;20484;-79
2021/06/17 04:36:48;;;;;;;5.17;4.67;;;23.20;56.60;;;;;;5037608;28;20455;-78
2021/06/17 04:39:15;;;;;;;6.10;5.00;;;23.20;56.50;;;;;;5028874;28;20457;-78
2021/06/17 04:41:43;;;;;;;8.40;5.43;;;23.20;56.50;;;;;;5036588;28;20412;-80
2021/06/17 04:44:09;;;;;;;5.87;5.00;;;23.20;56.40;;;;;;5062804;28;20408;-79
2021/06/17 04:46:35;;;;;;;6.10;5.50;;;23.30;56.20;;;;;;5060379;28;20426;-79
2021/06/17 04:49:03;;;;;;;7.10;5.53;;;23.20;56.20;;;;;;5046668;28;20518;-79
2021/06/17 04:51:33;;;;;;;8.17;5.33;;;23.30;56.80;;;;;;5064251;28;20431;-79
2021/06/17 04:53:59;;;;;;;7.70;4.70;;;23.30;56.30;;;;;;5065032;28;20438;-79
2021/06/17 04:56:25;;;;;;;5.13;4.50;;;23.30;56.00;;;;;;5049763;28;20459;-79
2021/06/17 04:58:51;;;;;;;11.07;5.90;;;23.30;56.20;;;;;;5042597;28;20563;-79
2021/06/17 05:01:18;;;;;;;6.10;5.50;;;23.30;56.10;;;;;;5042266;28;20166;-77
2021/06/17 05:03:47;;;;;;;10.03;5.87;;;23.30;56.10;;;;;;5025067;28;20218;-79
2021/06/17 05:06:16;;;;;;;5.33;4.77;;;23.30;56.20;;;;;;5030369;28;20492;-81
2021/06/17 05:11:26;;;;;;;11.30;5.83;;;23.40;56.00;;;;;;5054075;28;20778;-78
2021/06/17 05:13:52;;;;;;;8.10;5.10;;;23.40;56.10;;;;;;5043472;28;20420;-80
2021/06/17 05:16:18;;;;;;;7.50;5.63;;;23.50;56.10;;;;;;5061617;28;20674;-79
2021/06/17 05:18:43;;;;;;;7.00;4.80;;;23.60;55.70;;;;;;5047566;28;20202;-80
2021/06/17 05:21:09;;;;;;;9.93;5.03;;;23.60;55.60;;;;;;5009943;28;20558;-79
2021/06/17 05:23:38;;;;;;;7.10;5.57;;;23.60;55.50;;;;;;5025909;28;20200;-79
2021/06/17 05:26:04;;;;;;;7.97;5.80;;;23.60;55.50;;;;;;5029149;28;20209;-80
2021/06/17 05:28:30;;;;;;;7.47;4.90;;;23.70;55.40;;;;;;5043538;28;20471;-80
2021/06/17 05:30:59;;;;;;;10.10;5.50;;;23.80;55.20;;;;;;5060807;28;20173;-78
2021/06/17 05:33:26;;;;;;;8.90;5.20;;;23.80;55.10;;;;;;5031094;28;20425;-79
2021/06/17 05:35:52;;;;;;;7.13;5.67;;;23.90;55.10;;;;;;5027598;28;20436;-79
2021/06/17 05:38:19;;;;;;;7.60;4.27;;;23.90;54.70;;;;;;5049362;28;20539;-81
2021/06/17 05:40:46;;;;;;;7.33;4.90;;;24.00;54.50;;;;;;5052923;28;20198;-80
2021/06/17 05:43:11;;;;;;;13.60;4.50;;;24.10;54.40;;;;;;5053644;28;20922;-81
2021/06/17 05:45:38;;;;;;;7.33;5.20;;;24.20;54.20;;;;;;5039897;28;20445;-84
2021/06/17 05:48:04;;;;;;;6.33;5.73;;;24.40;54.00;;;;;;5066886;28;20405;-82
2021/06/17 05:50:30;;;;;;;7.07;5.40;;;24.60;53.80;;;;;;5042388;28;20412;-82
2021/06/17 05:52:56;;;;;;;9.80;5.13;;;24.80;53.30;;;;;;5072787;28;20472;-83
2021/06/17 05:55:21;;;;;;;11.40;5.30;;;25.00;52.70;;;;;;5043635;28;20216;-81
2021/06/17 05:57:47;;;;;;;9.23;5.17;;;25.20;52.30;;;;;;5072866;28;20468;-84
2021/06/17 06:00:14;;;;;;;7.67;4.70;;;25.30;51.90;;;;;;5076217;28;20161;-82
2021/06/17 06:02:40;;;;;;;4.57;4.17;;;26.00;51.30;;;;;;5071548;28;20535;-83
2021/06/17 06:05:06;;;;;;;5.53;4.80;;;27.70;48.40;;;;;;5058674;28;20445;-82
2021/06/17 06:07:32;;;;;;;8.50;4.10;;;29.30;45.10;;;;;;5046663;28;20174;-81
2021/06/17 06:09:58;;;;;;;8.13;5.10;;;30.20;43.30;;;;;;5042533;28;20420;-82
2021/06/17 06:12:23;;;;;;;4.87;4.47;;;31.30;41.60;;;;;;5041453;28;20234;-83
2021/06/17 06:14:49;;;;;;;5.83;4.80;;;32.40;40.00;;;;;;5023544;28;20166;-82
2021/06/17 06:17:15;;;;;;;5.47;4.43;;;32.90;38.80;;;;;;5042611;28;20178;-83
2021/06/17 06:19:40;;;;;;;5.27;4.77;;;33.20;37.40;;;;;;5043137;28;20201;-83
2021/06/17 06:22:07;;;;;;;8.00;4.43;;;33.40;36.60;;;;;;5041447;28;20197;-84
2021/06/17 06:24:35;;;;;;;6.37;4.80;;;33.90;36.20;;;;;;5046732;28;20171;-83
2021/06/17 06:27:01;;;;;;;5.00;4.37;;;34.50;35.20;;;;;;5070453;28;20452;-83
2021/06/17 06:29:28;;;;;;;4.90;3.90;;;34.70;34.20;;;;;;5062777;28;20386;-85
2021/06/17 06:31:55;;;;;;;5.47;4.87;;;34.40;34.30;;;;;;5045695;28;20439;-84
2021/06/17 06:34:21;;;;;;;5.53;4.37;;;34.30;34.30;;;;;;5043495;28;20434;-83
2021/06/17 06:36:47;;;;;;;7.30;4.50;;;34.00;35.00;;;;;;5052994;28;20491;-83
2021/06/17 06:39:12;;;;;;;5.90;5.00;;;33.80;34.80;;;;;;5017521;28;20185;-84
2021/06/17 06:41:40;;;;;;;4.80;4.33;;;33.80;35.30;;;;;;5050985;28;20158;-83
2021/06/17 06:44:05;;;;;;;6.00;5.17;;;34.30;34.30;;;;;;5059427;28;20209;-84
2021/06/17 06:46:32;;;;;;;7.20;4.50;;;34.60;33.70;;;;;;5054866;28;20475;-83
2021/06/17 06:48:58;;;;;;;5.10;4.40;;;35.00;33.00;;;;;;5046776;28;20177;-82
2021/06/17 06:51:24;;;;;;;6.90;5.03;;;35.40;32.50;;;;;;5040976;28;20465;-83
2021/06/17 06:53:53;;;;;;;9.57;4.50;;;35.80;32.30;;;;;;5058325;28;20416;-84
2021/06/17 06:56:19;;;;;;;5.70;4.60;;;36.40;31.40;;;;;;5064333;28;20460;-83
2021/06/17 06:58:44;;;;;;;7.20;5.97;;;37.00;30.60;;;;;;5052894;28;20463;-82
2021/06/17 07:01:10;;;;;;;5.63;4.67;;;37.00;30.30;;;;;;5067342;28;20162;-82
2021/06/17 07:03:35;;;;;;;6.10;4.70;;;37.10;30.10;;;;;;5063201;28;20185;-84
2021/06/17 07:06:01;;;;;;;6.87;5.30;;;37.20;30.00;;;;;;5036633;28;20186;-84
2021/06/17 07:08:27;;;;;;;6.03;5.07;;;37.10;30.00;;;;;;5057335;28;20189;-84
2021/06/17 07:10:52;;;;;;;6.73;5.17;;;37.20;30.10;;;;;;5063208;28;20174;-82
2021/06/17 07:13:18;;;;;;;6.53;5.10;;;37.10;30.10;;;;;;5038356;28;20183;-84
2021/06/17 07:15:44;;;;;;;7.93;4.73;;;37.20;30.00;;;;;;5047009;28;20198;-83
2021/06/17 07:18:19;;;;;;;4.87;4.47;;;37.20;30.00;;;;;;5029129;28;20194;-84
2021/06/17 07:20:45;;;;;;;5.73;4.70;;;37.30;30.70;;;;;;5029690;28;20421;-84
2021/06/17 07:23:11;;;;;;;9.97;5.20;;;37.40;29.80;;;;;;5050617;28;20395;-83
2021/06/17 07:25:37;;;;;;;9.27;5.10;;;37.60;29.80;;;;;;5033736;28;20190;-84
2021/06/17 07:28:06;;;;;;;6.90;4.77;;;38.20;29.40;;;;;;5018570;28;20186;-83
2021/06/17 07:30:32;;;;;;;6.53;4.93;;;38.60;28.80;;;;;;5031269;28;20421;-84
2021/06/17 07:32:57;;;;;;;10.50;5.00;;;38.80;28.90;;;;;;5008708;28;20430;-83
2021/06/17 07:35:24;;;;;;;7.70;5.13;;;38.90;28.30;;;;;;5027231;28;20233;-85
2021/06/17 07:37:50;;;;;;;7.30;6.60;;;39.40;28.00;;;;;;5046804;28;20186;-82
2021/06/17 07:40:17;;;;;;;10.03;4.90;;;39.40;27.80;;;;;;5013005;28;20448;-86
2021/06/17 07:42:43;;;;;;;5.63;5.13;;;39.00;28.20;;;;;;5031611;28;20417;-84
2021/06/17 07:45:09;;;;;;;6.97;5.60;;;38.80;28.40;;;;;;5024508;28;20448;-84
2021/06/17 07:47:36;;;;;;;5.57;5.07;;;38.90;28.20;;;;;;5062532;28;20419;-84
2021/06/17 07:50:03;;;;;;;5.90;5.40;;;39.00;28.30;;;;;;5065938;28;20762;-84
2021/06/17 07:52:32;;;;;;;6.60;5.67;;;39.00;28.10;;;;;;5063435;28;20442;-85
2021/06/17 07:54:59;;;;;;;6.33;5.27;;;39.20;27.80;;;;;;5030451;28;20431;-84
2021/06/17 07:57:25;;;;;;;4.90;3.97;;;39.90;27.30;;;;;;5064732;28;20400;-83
2021/06/17 07:59:51;;;;;;;7.57;5.87;;;39.80;27.20;;;;;;5055992;28;20446;-85
2021/06/17 08:02:16;;;;;;;24.13;21.63;;;40.10;27.00;;;;;;5029767;28;20174;-86
2021/06/17 08:04:42;;;;;;;9.17;5.80;;;40.50;26.60;;;;;;5046170;28;20451;-83
2021/06/17 08:07:08;;;;;;;6.57;5.87;;;41.00;26.20;;;;;;5045234;28;20197;-82
2021/06/17 08:09:34;;;;;;;16.60;5.10;;;40.70;26.30;;;;;;5027010;28;20174;-84
2021/06/17 08:11:59;;;;;;;10.27;5.53;;;40.30;27.00;;;;;;5043760;28;20253;-84
2021/06/17 08:14:26;;;;;;;6.03;5.37;;;40.50;27.10;;;;;;5042962;28;20212;-84
2021/06/17 08:16:54;;;;;;;5.97;5.10;;;40.70;26.60;;;;;;5026909;28;20200;-84
2021/06/17 08:19:27;;;;;;;17.63;5.63;;;40.40;26.60;;;;;;5026072;28;20985;-84
2021/06/17 08:21:53;;;;;;;6.73;6.03;;;40.60;26.60;;;;;;5046638;28;20754;-85
2021/06/17 08:24:19;;;;;;;6.53;5.80;;;40.80;26.40;;;;;;5048400;28;20379;-84
2021/06/17 08:26:45;;;;;;;6.57;5.97;;;40.80;26.40;;;;;;5049161;28;20268;-82
2021/06/17 08:29:10;;;;;;;6.70;5.97;;;40.80;26.10;;;;;;5048453;28;20216;-84
2021/06/17 08:31:40;;;;;;;6.30;5.60;;;40.80;26.70;;;;;;5049790;28;20415;-83
2021/06/17 08:34:06;;;;;;;6.63;4.97;;;41.30;25.70;;;;;;5048543;28;20394;-85
2021/06/17 08:36:31;;;;;;;12.45;5.80;;;41.80;25.00;;;;;;5068137;28;20189;-86
2021/06/17 08:38:57;;;;;;;7.03;5.47;;;41.80;25.50;;;;;;5033957;28;20336;-85
2021/06/17 08:41:23;;;;;;;6.28;4.85;;;42.30;24.30;;;;;;5057335;28;20167;-87
2021/06/17 08:43:50;;;;;;;5.85;5.35;;;42.80;24.20;;;;;;5071615;28;20180;-86
2021/06/17 08:46:17;;;;;;;5.40;4.90;;;43.50;23.20;;;;;;5049131;28;20833;-86
2021/06/17 08:48:42;;;;;;;6.07;4.70;;;43.60;23.30;;;;;;5067087;28;20172;-87
2021/06/17 08:51:10;;;;;;;5.10;4.70;;;44.40;22.40;;;;;;5066982;28;20197;-86
2021/06/17 08:53:35;;;;;;;5.72;5.18;;;44.80;22.30;;;;;;5068850;28;20169;-85
2021/06/17 08:56:01;;;;;;;6.03;5.53;;;45.10;22.00;;;;;;5072718;28;20286;-86
2021/06/17 08:58:29;;;;;;;7.00;5.45;;;45.70;21.80;;;;;;5046026;28;20213;-85
2021/06/17 09:00:55;;;;;;;5.80;5.30;;;45.70;21.60;;;;;;5050981;28;20173;-86
2021/06/17 09:03:21;;;;;;;5.40;5.00;;;46.10;21.10;;;;;;5027619;28;20197;-85
2021/06/17 09:05:52;;;;;;;5.00;4.50;;;46.40;21.10;;;;;;5036037;28;20215;-85
2021/06/17 09:08:26;;;;;;;9.02;4.75;;;47.20;20.80;;;;;;5059457;28;20150;-85
2021/06/17 09:10:52;;;;;;;6.13;5.60;;;47.80;20.20;;;;;;5058584;28;20162;-84
2021/06/17 09:13:18;;;;;;;6.28;5.63;;;47.50;20.00;;;;;;5069932;28;20173;-86
2021/06/17 09:15:48;;;;;;;5.00;4.60;;;47.50;20.10;;;;;;5074864;28;20292;-85
2021/06/17 09:18:43;;;;;;;5.20;4.85;;;47.40;19.90;;;;;;5049827;28;20198;-86
2021/06/17 09:21:10;;;;;;;6.22;4.72;;;47.30;20.00;;;;;;5038503;28;20651;-84
2021/06/17 09:23:37;;;;;;;6.30;5.80;;;46.10;20.30;;;;;;5024930;28;20177;-85
2021/06/17 09:26:20;;;;;;;8.75;5.22;;;44.70;21.70;;;;;;5043024;28;20196;-84
2021/06/17 09:29:00;;;;;;;5.10;4.70;;;44.80;21.70;;;;;;5024425;28;20174;-84
2021/06/17 09:31:31;;;;;;;6.20;5.53;;;44.70;21.90;;;;;;5041133;28;20177;-85
2021/06/17 09:33:58;;;;;;;6.13;5.53;;;44.10;22.40;;;;;;5026237;28;20162;-83
2021/06/17 09:36:32;;;;;;;13.15;12.18;;;43.70;22.70;;;;;;5027958;28;20189;-86
2021/06/17 09:39:19;;;;;;;8.85;5.55;;;43.60;22.80;;;;;;5061393;28;20189;-86
2021/06/17 09:41:47;;;;;;;7.22;5.25;;;43.60;22.70;;;;;;5064211;28;20164;-86
2021/06/17 09:44:28;;;;;;;6.05;5.35;;;43.80;22.50;;;;;;5061929;28;20161;-85
2021/06/17 09:47:14;;;;;;;6.93;5.63;;;43.80;22.40;;;;;;5058092;28;20190;-86
2021/06/17 09:49:41;;;;;;;5.50;5.10;;;44.30;22.20;;;;;;5044527;28;20201;-86
2021/06/17 09:52:08;;;;;;;6.18;5.57;;;44.90;21.90;;;;;;5006642;28;20166;-86
2021/06/17 09:54:36;;;;;;;7.00;5.65;;;44.60;22.10;;;;;;5025466;28;20265;-84
2021/06/17 09:57:07;;;;;;;6.63;5.85;;;44.10;22.60;;;;;;5051403;28;20212;-84
2021/06/17 10:00:05;;;;;;;7.22;6.50;;;44.30;22.30;;;;;;5040615;28;20193;-84
2021/06/17 10:02:39;;;;;;;6.10;5.53;;;44.10;22.20;;;;;;5054263;28;20161;-84
2021/06/17 10:05:21;;;;;;;9.55;8.63;;;43.40;22.80;;;;;;5054899;28;20182;-86
2021/06/17 10:07:48;;;;;;;7.38;6.03;;;43.30;22.90;;;;;;5045610;28;20162;-86
2021/06/17 10:10:15;;;;;;;6.30;5.70;;;42.90;23.20;;;;;;5041753;28;20176;-85
2021/06/17 10:12:43;;;;;;;6.88;6.13;;;42.10;24.00;;;;;;5043502;28;20180;-86
2021/06/17 10:15:09;;;;;;;6.13;5.53;;;41.70;24.60;;;;;;5042829;28;20256;-86
2021/06/17 10:17:35;;;;;;;6.47;5.82;;;41.90;24.20;;;;;;5049003;28;20170;-86
2021/06/17 10:20:08;;;;;;;6.32;5.75;;;41.70;24.70;;;;;;5011931;28;20256;-85
2021/06/17 10:22:36;;;;;;;7.65;5.60;;;42.20;23.80;;;;;;5055939;28;20170;-85
2021/06/17 10:25:04;;;;;;;7.38;6.68;;;42.10;23.90;;;;;;5047650;28;20162;-85
2021/06/17 10:27:40;;;;;;;6.22;5.63;;;42.50;23.40;;;;;;5043723;28;20647;-85
2021/06/17 10:30:08;;;;;;;10.85;8.52;;;43.20;22.90;;;;;;5039085;28;20256;-86
2021/06/17 10:32:36;;;;;;;5.35;4.95;;;42.50;22.80;;;;;;5042134;28;20169;-87
2021/06/17 10:35:04;;;;;;;5.07;4.50;;;42.50;22.80;;;;;;5059673;28;20730;-84
2021/06/17 10:37:47;;;;;;;5.85;5.35;;;42.60;22.80;;;;;;5055864;28;20260;-86
2021/06/17 10:40:13;;;;;;;5.72;5.20;;;42.50;22.70;;;;;;5064173;22;20228;-78
2021/06/17 10:42:44;;;;;;;7.93;5.40;;;42.30;23.20;;;;;;5044044;28;20182;-78
2021/06/17 10:45:14;;;;;;;5.50;5.00;;;42.00;22.50;;;;;;5033328;28;20619;-77
2021/06/17 10:47:44;;;;;;;6.00;5.50;;;41.60;23.30;;;;;;5033662;28;20627;-78
2021/06/17 10:50:16;;;;;;;9.83;5.83;;;41.20;24.20;;;;;;5035791;28;20412;-78
2021/06/17 10:52:43;;;;;;;8.67;5.40;;;41.00;24.20;;;;;;5034248;28;20395;-78
2021/06/17 10:55:14;;;;;;;7.03;6.43;;;40.00;25.40;;;;;;5033846;28;20486;-77
2021/06/17 10:57:43;;;;;;;6.67;5.30;;;39.00;26.40;;;;;;5032812;28;20408;-78
2021/06/17 11:00:21;;;;;;;5.70;4.93;;;38.30;27.50;;;;;;5035492;28;20428;-79
2021/06/17 11:02:52;;;;;;;7.87;4.80;;;37.20;29.00;;;;;;5036501;28;20428;-79
2021/06/17 11:08:20;;;;;;;4.87;4.47;;;36.00;30.40;;;;;;5054656;28;20436;-79
2021/06/17 11:10:50;;;;;;;5.03;4.63;;;35.60;30.60;;;;;;5057794;28;20435;-80
2021/06/17 11:13:38;;;;;;;5.13;4.50;;;35.20;31.00;;;;;;5062633;28;20448;-82
2021/06/17 11:16:16;;;;;;;8.07;4.63;;;34.90;30.70;;;;;;5058625;28;20416;-81
2021/06/17 11:21:26;;;;;;;5.47;4.57;;;34.70;31.50;;;;;;5040730;28;20416;-82
2021/06/17 11:24:09;;;;;;;6.70;5.10;;;34.60;31.80;;;;;;5037899;28;20433;-80
2021/06/17 11:26:44;;;;;;;10.87;5.00;;;34.70;32.10;;;;;;5032369;28;20417;-74
2021/06/17 11:29:18;;;;;;;5.03;3.93;;;35.00;31.50;;;;;;5031050;28;20412;-75
2021/06/17 11:31:45;;;;;;;4.80;4.40;;;35.10;31.20;;;;;;5033286;28;20425;-76
2021/06/17 11:34:12;;;;;;;7.13;4.83;;;35.10;31.30;;;;;;5048512;28;20519;-75
2021/06/17 11:36:54;;;;;;;6.40;4.10;;;35.00;31.30;;;;;;5050035;28;20404;-75
2021/06/17 11:39:29;;;;;;;5.37;4.13;;;35.00;31.60;;;;;;5051242;28;20463;-75
2021/06/17 11:41:57;;;;;;;5.07;4.57;;;35.00;31.70;;;;;;5051286;28;20409;-73
2021/06/17 11:44:26;;;;;;;4.20;3.80;;;35.10;31.60;;;;;;5050398;28;20490;-74
2021/06/17 11:47:11;;;;;;;5.37;4.87;;;35.20;30.80;;;;;;5034923;28;20848;-76
2021/06/17 11:49:39;;;;;;;4.60;3.90;;;35.00;30.80;;;;;;5032058;28;20431;-74
2021/06/17 11:52:10;;;;;;;11.07;5.47;;;35.10;30.50;;;;;;5030032;28;20521;-74
2021/06/17 11:54:37;;;;;;;6.00;4.60;;;35.10;30.60;;;;;;5028993;28;20468;-75
2021/06/17 11:57:03;;;;;;;9.07;5.67;;;35.10;30.40;;;;;;5049021;28;20419;-74
2021/06/17 11:59:36;;;;;;;8.43;5.40;;;35.00;30.80;;;;;;5051135;28;20475;-76
2021/06/17 12:02:16;;;;;;;5.27;4.77;;;35.00;31.00;;;;;;5052966;28;20897;-73
2021/06/17 12:05:03;;;;;;;6.03;4.53;;;35.00;30.80;;;;;;5052524;28;20408;-73
2021/06/17 12:07:39;;;;;;;6.13;4.33;;;35.00;31.00;;;;;;5052173;28;20443;-74
2021/06/17 12:10:07;;;;;;;6.67;5.20;;;35.10;30.90;;;;;;5054098;28;20473;-75
2021/06/17 12:12:33;;;;;;;6.00;3.83;;;35.20;30.90;;;;;;5052697;28;20431;-73
2021/06/17 12:15:00;;;;;;;4.43;4.00;;;35.20;30.60;;;;;;5037958;28;20499;-74
2021/06/17 12:17:47;;;;;;;5.57;5.07;;;35.30;30.20;;;;;;5048301;28;20502;-74
2021/06/17 12:20:21;;;;;;;6.80;4.77;;;35.20;30.20;;;;;;5049482;28;20985;-75
2021/06/17 12:22:56;;;;;;;5.20;4.70;;;35.00;30.20;;;;;;5033951;28;20941;-74
2021/06/17 12:25:24;;;;;;;6.20;5.07;;;34.80;30.40;;;;;;5033730;28;20432;-76
2021/06/17 12:27:50;;;;;;;5.90;4.07;;;34.70;31.30;;;;;;5033676;28;20398;-72
2021/06/17 12:30:33;;;;;;;7.83;4.90;;;34.70;31.50;;;;;;5033756;28;20397;-74
2021/06/17 12:33:08;;;;;;;6.80;5.50;;;34.80;31.80;;;;;;5033197;28;20424;-76
2021/06/17 12:35:39;;;;;;;7.27;5.47;;;34.90;31.80;;;;;;5036920;28;20416;-80
2021/06/17 12:38:05;;;;;;;6.67;5.60;;;35.10;32.20;;;;;;5032002;28;20547;-75
2021/06/17 12:40:41;;;;;;;7.00;6.10;;;35.10;32.60;;;;;;5033415;28;20431;-77
2021/06/17 12:43:19;;;;;;;8.30;5.70;;;34.90;33.10;;;;;;5034858;28;20462;-77
2021/06/17 12:45:47;;;;;;;9.87;5.87;;;34.80;33.30;;;;;;5033880;28;20437;-75
2021/06/17 12:49:11;;;;;;;11.00;6.47;;;34.80;33.50;;;;;;5033227;28;20467;-77
2021/06/17 12:54:25;;;;;;;6.60;5.93;;;35.00;33.70;;;;;;5033521;28;20408;-76
2021/06/17 12:57:01;;;;;;;12.70;7.07;;;35.00;33.30;;;;;;5034723;28;20498;-76
2021/06/17 12:59:54;;;;;;;7.47;6.00;;;34.80;33.60;;;;;;5033128;28;20445;-75
2021/06/17 13:02:23;;;;;;;9.50;7.27;;;34.70;34.30;;;;;;5038261;28;20444;-77
2021/06/17 13:05:01;;;;;;;8.63;6.70;;;34.70;34.20;;;;;;5050568;28;20455;-76
2021/06/17 13:07:28;;;;;;;8.03;7.00;;;34.80;34.30;;;;;;5028366;28;20420;-76
2021/06/17 13:10:22;;;;;;;6.77;6.10;;;34.90;34.10;;;;;;5039690;28;20424;-76